createdAt,value
2023-02-13T00:02:09.869Z,391.75
2023-02-13T00:04:37.055Z,430.75
2023-02-13T00:07:04.194Z,309.05
2023-02-13T00:09:31.374Z,206.35
2023-02-13T00:11:58.481Z,145.40
2023-02-13T00:14:25.719Z,145.43
2023-02-13T00:16:52.782Z,128.30
2023-02-13T00:19:19.876Z,131.27
2023-02-13T00:21:47.008Z,150.23
2023-02-13T00:24:14.160Z,137.70
2023-02-13T00:26:41.632Z,120.43
2023-02-13T00:29:08.812Z,147.80
2023-02-13T00:31:36.022Z,132.00
2023-02-13T00:34:03.667Z,146.30
2023-02-13T00:36:31.090Z,150.27
2023-02-13T00:38:58.187Z,137.63
2023-02-13T00:41:25.253Z,146.88
2023-02-13T00:43:52.385Z,188.55
2023-02-13T00:46:19.805Z,240.35
2023-02-13T00:48:46.920Z,178.95
2023-02-13T00:51:14.044Z,174.73
2023-02-13T00:53:41.174Z,219.60
2023-02-13T00:56:08.500Z,147.13
2023-02-13T00:58:35.718Z,140.68
2023-02-13T01:01:02.940Z,159.25
2023-02-13T01:03:30.215Z,135.90
2023-02-13T01:05:58.423Z,147.00
2023-02-13T01:08:28.485Z,144.63
2023-02-13T01:10:56.540Z,134.20
2023-02-13T01:13:23.868Z,139.02
2023-02-13T01:15:51.534Z,142.10
2023-02-13T01:18:20.463Z,159.65
2023-02-13T01:21:01.262Z,156.73
2023-02-13T01:23:37.701Z,205.20
2023-02-13T01:26:06.163Z,162.93
2023-02-13T01:28:33.507Z,236.38
2023-02-13T01:31:01.436Z,262.73
2023-02-13T01:33:30.525Z,167.38
2023-02-13T01:35:58.311Z,209.23
2023-02-13T01:38:25.374Z,176.73
2023-02-13T01:40:54.430Z,146.50
2023-02-13T01:43:23.668Z,271.17
2023-02-13T01:45:55.420Z,315.23
2023-02-13T01:48:26.655Z,219.80
2023-02-13T01:50:56.546Z,346.35
2023-02-13T01:53:27.825Z,324.95
2023-02-13T01:56:15.427Z,234.80
2023-02-13T01:58:45.543Z,386.98
2023-02-13T02:01:13.001Z,241.82
2023-02-13T02:03:51.869Z,421.80
2023-02-13T02:06:32.792Z,406.27
2023-02-13T02:09:06.327Z,307.17
2023-02-13T02:12:08.510Z,299.77
2023-02-13T02:14:35.854Z,497.23
2023-02-13T02:17:02.996Z,459.08
2023-02-13T02:20:12.512Z,281.38
2023-02-13T02:22:55.256Z,322.23
2023-02-13T02:25:44.265Z,295.15
2023-02-13T02:28:17.189Z,200.70
2023-02-13T02:30:59.611Z,358.70
2023-02-13T02:33:35.071Z,343.20
2023-02-13T02:36:07.954Z,194.95
2023-02-13T02:38:45.919Z,337.45
2023-02-13T02:41:41.911Z,264.83
2023-02-13T02:44:34.010Z,343.98
2023-02-13T02:47:33.714Z,353.88
2023-02-13T02:50:26.994Z,302.30
2023-02-13T02:53:18.154Z,270.27
2023-02-13T02:55:56.270Z,408.65
2023-02-13T02:58:50.379Z,464.40
2023-02-13T03:01:39.966Z,393.08
2023-02-13T03:04:29.635Z,191.35
2023-02-13T03:07:03.596Z,148.90
2023-02-13T03:09:55.012Z,248.75
2023-02-13T03:12:43.170Z,236.77
2023-02-13T03:15:10.664Z,218.25
2023-02-13T03:17:56.982Z,187.32
2023-02-13T03:20:49.833Z,245.63
2023-02-13T03:23:26.937Z,301.23
2023-02-13T03:26:12.408Z,182.32
2023-02-13T03:29:31.720Z,330.98
2023-02-13T03:32:12.559Z,274.38
2023-02-13T03:35:08.013Z,108.38
2023-02-13T03:37:56.089Z,215.88
2023-02-13T03:41:03.745Z,178.68
2023-02-13T03:43:36.508Z,196.43
2023-02-13T03:46:04.562Z,279.67
2023-02-13T03:49:04.733Z,214.90
2023-02-13T03:51:41.057Z,70.47
2023-02-13T03:54:51.910Z,222.15
2023-02-13T03:57:39.741Z,230.20
2023-02-13T04:00:12.432Z,164.82
2023-02-13T04:03:03.337Z,213.25
2023-02-13T04:05:33.655Z,191.82
2023-02-13T04:08:00.750Z,148.40
2023-02-13T04:10:33.577Z,211.25
2023-02-13T04:13:10.556Z,184.50
2023-02-13T04:15:42.750Z,136.90
2023-02-13T04:18:12.975Z,173.93
2023-02-13T04:20:40.264Z,107.10
2023-02-13T04:23:09.997Z,157.02
2023-02-13T04:25:39.966Z,81.68
2023-02-13T04:28:10.754Z,209.00
2023-02-13T04:30:39.181Z,231.93
2023-02-13T04:33:06.427Z,194.10
2023-02-13T04:38:14.358Z,189.77
2023-02-13T04:40:45.854Z,166.73
2023-02-13T04:43:12.996Z,200.63
2023-02-13T04:45:42.578Z,238.63
2023-02-13T04:48:09.790Z,91.60
2023-02-13T04:50:51.649Z,123.32
2023-02-13T04:53:26.183Z,145.27
2023-02-13T04:55:58.259Z,109.95
2023-02-13T04:58:54.856Z,160.80
2023-02-13T05:02:12.466Z,97.22
2023-02-13T05:05:26.025Z,137.73
2023-02-13T05:08:04.931Z,188.52
2023-02-13T05:11:48.841Z,119.57
2023-02-13T05:13:50.790Z,98.75
2023-02-13T05:16:40.098Z,109.90
2023-02-13T05:19:29.988Z,99.35
2023-02-13T05:22:18.906Z,132.82
2023-02-13T05:24:50.020Z,90.00
2023-02-13T05:27:17.163Z,221.23
2023-02-13T05:29:44.357Z,121.25
2023-02-13T05:32:17.048Z,84.63
2023-02-13T05:34:48.498Z,138.75
2023-02-13T05:37:28.432Z,128.98
2023-02-13T05:40:20.460Z,120.50
2023-02-13T05:43:00.541Z,80.03
2023-02-13T05:45:41.347Z,193.27
2023-02-13T05:48:23.760Z,159.57
2023-02-13T05:50:59.876Z,115.90
2023-02-13T05:53:49.443Z,73.90
2023-02-13T05:56:26.939Z,97.05
2023-02-13T05:59:09.910Z,128.13
2023-02-13T06:02:18.661Z,81.25
2023-02-13T06:05:32.839Z,111.25
2023-02-13T06:08:29.675Z,79.97
2023-02-13T06:11:29.713Z,148.95
2023-02-13T06:15:13.962Z,98.05
2023-02-13T06:17:43.256Z,105.38
2023-02-13T06:20:10.764Z,140.00
2023-02-13T06:22:37.702Z,112.18
2023-02-13T06:25:05.257Z,82.80
2023-02-13T06:27:32.213Z,83.45
2023-02-13T06:29:59.180Z,107.80
2023-02-13T06:32:26.104Z,88.60
2023-02-13T06:34:53.106Z,144.40
2023-02-13T06:37:20.048Z,166.82
2023-02-13T06:39:47.084Z,140.32
2023-02-13T06:42:14.117Z,104.40
2023-02-13T06:44:41.090Z,103.30
2023-02-13T06:47:08.012Z,102.57
2023-02-13T06:49:34.987Z,111.20
2023-02-13T06:52:02.987Z,91.93
2023-02-13T06:54:45.922Z,123.95
2023-02-13T06:59:40.937Z,186.68
2023-02-13T07:02:10.671Z,246.10
2023-02-13T07:04:37.634Z,157.30
2023-02-13T07:07:04.882Z,270.73
2023-02-13T07:09:32.432Z,228.07
2023-02-13T07:12:02.229Z,183.95
2023-02-13T07:14:29.186Z,150.23
2023-02-13T07:16:56.123Z,114.57
2023-02-13T07:19:23.119Z,98.03
2023-02-13T07:21:50.641Z,107.93
2023-02-13T07:24:17.604Z,121.03
2023-02-13T07:26:44.644Z,134.70
2023-02-13T07:29:12.490Z,70.72
2023-02-13T07:31:40.072Z,72.85
2023-02-13T07:34:07.547Z,76.30
2023-02-13T07:36:35.027Z,162.90
2023-02-13T07:39:02.250Z,111.15
2023-02-13T07:41:29.322Z,114.10
2023-02-13T07:43:56.338Z,137.77
2023-02-13T07:46:23.385Z,141.45
2023-02-13T07:48:52.573Z,70.70
2023-02-13T07:51:19.644Z,62.78
2023-02-13T07:53:46.650Z,127.10
2023-02-13T07:56:13.671Z,125.88
2023-02-13T07:58:41.085Z,72.07
2023-02-13T08:01:15.103Z,89.88
2023-02-13T08:03:42.194Z,83.28
2023-02-13T08:06:09.552Z,125.10
2023-02-13T08:08:36.649Z,64.63
2023-02-13T08:11:31.272Z,92.75
2023-02-13T08:13:58.254Z,100.88
2023-02-13T08:16:25.384Z,63.08
2023-02-13T08:18:52.322Z,106.10
2023-02-13T08:21:19.242Z,69.18
2023-02-13T08:23:46.279Z,69.07
2023-02-13T08:26:13.262Z,82.32
2023-02-13T08:28:40.293Z,46.78
2023-02-13T08:31:12.001Z,61.50
2023-02-13T08:33:41.465Z,59.35
2023-02-13T08:36:09.048Z,46.92
2023-02-13T08:38:36.008Z,54.88
2023-02-13T08:41:03.008Z,53.22
2023-02-13T08:43:29.959Z,67.18
2023-02-13T08:46:01.126Z,53.80
2023-02-13T08:48:28.403Z,41.67
2023-02-13T08:50:55.435Z,75.22
2023-02-13T08:53:22.582Z,44.42
2023-02-13T08:55:56.556Z,41.75
2023-02-13T08:58:24.233Z,37.85
2023-02-13T09:00:51.447Z,69.60
2023-02-13T09:03:18.550Z,80.93
2023-02-13T09:05:45.875Z,50.20
2023-02-13T09:08:13.889Z,63.65
2023-02-13T09:10:43.781Z,62.53
2023-02-13T09:13:10.808Z,65.22
2023-02-13T09:15:41.340Z,34.50
2023-02-13T09:18:08.789Z,40.95
2023-02-13T09:20:36.276Z,42.00
2023-02-13T09:23:03.478Z,33.53
2023-02-13T09:25:31.485Z,35.90
2023-02-13T09:28:00.094Z,33.72
2023-02-13T09:30:27.265Z,61.38
2023-02-13T09:32:55.149Z,37.75
2023-02-13T09:35:24.004Z,32.25
2023-02-13T09:37:50.991Z,31.10
2023-02-13T09:40:59.532Z,35.88
2023-02-13T09:43:52.255Z,31.02
2023-02-13T09:46:28.039Z,29.73
2023-02-13T09:48:58.852Z,24.02
2023-02-13T09:51:26.869Z,33.67
2023-02-13T09:54:05.718Z,26.73
2023-02-13T09:56:50.819Z,30.15
2023-02-13T09:59:32.816Z,25.90
2023-02-13T10:02:08.345Z,27.38
2023-02-13T10:04:46.971Z,32.17
2023-02-13T10:07:24.111Z,33.75
2023-02-13T10:09:58.863Z,29.23
2023-02-13T10:12:37.945Z,26.95
2023-02-13T10:15:21.490Z,26.67
2023-02-13T10:17:56.653Z,25.83
2023-02-13T10:20:36.404Z,28.90
2023-02-13T10:23:30.329Z,28.48
2023-02-13T10:25:59.067Z,25.33
2023-02-13T10:28:31.617Z,30.45
2023-02-13T10:31:25.218Z,28.65
2023-02-13T10:34:02.460Z,26.30
2023-02-13T10:36:34.275Z,28.40
2023-02-13T10:39:05.878Z,28.17
2023-02-13T10:41:53.299Z,25.70
2023-02-13T10:44:38.321Z,31.92
2023-02-13T10:47:29.839Z,27.73
2023-02-13T10:50:39.558Z,28.20
2023-02-13T10:53:38.288Z,34.45
2023-02-13T10:56:18.451Z,28.50
2023-02-13T10:59:09.956Z,30.50
2023-02-13T11:01:58.007Z,29.27
2023-02-13T11:04:25.175Z,31.08
2023-02-13T11:07:00.732Z,29.70
2023-02-13T11:09:28.503Z,29.38
2023-02-13T11:11:55.599Z,30.88
2023-02-13T11:14:24.822Z,28.00
2023-02-13T11:16:59.094Z,27.38
2023-02-13T11:19:39.150Z,29.83
2023-02-13T11:22:13.617Z,29.27
2023-02-13T11:24:50.216Z,28.48
2023-02-13T11:27:23.454Z,31.10
2023-02-13T11:29:59.401Z,27.80
2023-02-13T11:32:33.848Z,30.60
2023-02-13T11:35:39.406Z,31.63
2023-02-13T11:38:20.993Z,33.10
2023-02-13T11:40:52.788Z,31.05
2023-02-13T11:43:37.515Z,30.35
2023-02-13T11:46:06.753Z,31.15
2023-02-13T11:48:34.606Z,28.42
2023-02-13T11:51:02.314Z,32.20
2023-02-13T11:53:41.573Z,30.08
2023-02-13T11:56:14.468Z,31.85
2023-02-13T11:58:42.521Z,32.72
2023-02-13T12:01:21.809Z,32.50
2023-02-13T12:04:16.808Z,32.50
2023-02-13T12:07:12.376Z,30.63
2023-02-13T12:09:41.186Z,33.67
2023-02-13T12:12:25.731Z,34.35
2023-02-13T12:14:55.374Z,36.03
2023-02-13T12:17:32.574Z,34.78
2023-02-13T12:20:00.673Z,37.80
2023-02-13T12:22:50.717Z,36.33
2023-02-13T12:25:41.426Z,37.42
2023-02-13T12:28:12.903Z,38.38
2023-02-13T12:30:58.629Z,37.05
2023-02-13T12:33:49.964Z,37.95
2023-02-13T12:36:41.367Z,41.22
2023-02-13T12:39:34.193Z,36.92
2023-02-13T12:42:10.161Z,40.85
2023-02-13T12:44:58.778Z,37.70
2023-02-13T12:47:35.768Z,37.72
2023-02-13T12:50:14.738Z,33.30
2023-02-13T12:53:14.725Z,33.10
2023-02-13T12:56:10.013Z,38.10
2023-02-13T12:59:02.016Z,39.05
2023-02-13T13:01:50.552Z,31.60
2023-02-13T13:04:27.295Z,32.63
2023-02-13T13:07:18.736Z,40.97
2023-02-13T13:10:00.708Z,49.58
2023-02-13T13:12:47.677Z,36.78
2023-02-13T13:15:36.601Z,32.75
2023-02-13T13:18:22.156Z,34.55
2023-02-13T13:21:06.867Z,31.83
2023-02-13T13:23:36.563Z,34.80
2023-02-13T13:26:37.342Z,34.22
2023-02-13T13:29:11.149Z,37.50
2023-02-13T13:31:39.190Z,36.28
2023-02-13T13:34:13.748Z,32.28
2023-02-13T13:36:41.265Z,32.70
2023-02-13T13:39:13.990Z,29.60
2023-02-13T13:41:47.991Z,35.88
2023-02-13T13:46:58.028Z,31.58
2023-02-13T13:50:02.775Z,32.85
2023-02-13T13:52:35.311Z,31.70
2023-02-13T13:55:04.579Z,37.67
2023-02-13T13:57:34.416Z,33.50
2023-02-13T14:00:10.525Z,33.60
2023-02-13T14:02:44.451Z,53.80
2023-02-13T14:05:31.552Z,34.10
2023-02-13T14:08:01.878Z,63.20
2023-02-13T14:10:28.903Z,38.45
2023-02-13T14:12:55.949Z,32.38
2023-02-13T14:15:35.072Z,32.30
2023-02-13T14:18:08.112Z,36.25
2023-02-13T14:20:40.732Z,39.95
2023-02-13T14:23:19.308Z,39.47
2023-02-13T14:25:46.832Z,39.58
2023-02-13T14:28:27.977Z,35.00
2023-02-13T14:31:27.465Z,54.00
2023-02-13T14:34:14.547Z,90.78
2023-02-13T14:36:45.448Z,43.90
2023-02-13T14:39:28.606Z,44.15
2023-02-13T14:41:55.585Z,38.78
2023-02-13T14:44:34.678Z,47.65
2023-02-13T14:47:15.380Z,56.38
2023-02-13T14:49:44.128Z,44.85
2023-02-13T14:52:26.460Z,49.15
2023-02-13T14:55:05.064Z,54.80
2023-02-13T14:57:43.028Z,87.28
2023-02-13T15:00:43.406Z,88.75
2023-02-13T15:03:25.789Z,83.25
2023-02-13T15:05:56.620Z,81.57
2023-02-13T15:08:29.123Z,98.68
2023-02-13T15:10:57.624Z,97.35
2023-02-13T15:13:34.138Z,116.97
2023-02-13T15:16:07.613Z,164.48
2023-02-13T15:18:45.566Z,178.15
2023-02-13T15:21:19.901Z,95.70
2023-02-13T15:23:52.695Z,77.60
2023-02-13T15:26:26.600Z,123.80
2023-02-13T15:31:38.673Z,102.47
2023-02-13T15:34:34.488Z,59.80
2023-02-13T15:37:03.126Z,85.72
2023-02-13T15:39:32.284Z,56.63
2023-02-13T15:42:01.981Z,141.60
2023-02-13T15:44:33.283Z,111.00
2023-02-13T15:47:07.414Z,159.63
2023-02-13T15:49:45.888Z,154.20
2023-02-13T15:52:36.638Z,119.47
2023-02-13T15:55:28.556Z,228.18
2023-02-13T15:57:58.878Z,150.50
2023-02-13T16:00:29.436Z,238.95
2023-02-13T16:02:58.468Z,131.00
2023-02-13T16:27:15.530Z,140.80
2023-02-13T16:29:51.824Z,239.07
2023-02-13T16:32:27.423Z,252.70
2023-02-13T16:34:56.205Z,347.05
2023-02-13T16:37:33.330Z,200.70
2023-02-13T16:51:07.571Z,294.08
2023-02-13T16:53:34.887Z,150.98
2023-02-13T16:56:05.395Z,210.13
2023-02-13T16:58:32.599Z,249.40
2023-02-13T17:01:02.081Z,207.50
2023-02-13T17:03:29.220Z,174.30
2023-02-13T17:06:00.063Z,210.07
2023-02-13T17:08:27.686Z,358.50
2023-02-13T17:11:07.368Z,223.00
2023-02-13T17:13:34.964Z,274.75
2023-02-13T17:16:02.151Z,224.27
2023-02-13T17:18:29.304Z,225.00
2023-02-13T17:20:56.815Z,269.38
2023-02-13T17:23:25.428Z,314.35
2023-02-13T17:25:54.116Z,314.52
2023-02-13T17:28:22.421Z,283.70
2023-02-13T17:30:51.673Z,293.00
2023-02-13T17:33:23.232Z,312.55
2023-02-13T17:35:50.596Z,141.07
2023-02-13T17:38:18.182Z,199.65
2023-02-13T17:40:46.084Z,250.30
2023-02-13T17:43:15.484Z,267.95
2023-02-13T17:45:43.784Z,153.80
2023-02-13T17:48:10.842Z,251.57
2023-02-13T17:50:38.442Z,188.20
2023-02-13T17:53:08.648Z,234.30
2023-02-13T17:55:35.859Z,251.32
2023-02-13T17:58:03.402Z,183.27
2023-02-13T18:00:32.841Z,243.27
2023-02-13T18:03:01.031Z,214.30
2023-02-13T18:05:28.790Z,261.75
2023-02-13T18:07:56.130Z,330.25
2023-02-13T18:10:25.635Z,324.75
2023-02-13T18:12:54.010Z,230.93
2023-02-13T18:15:21.673Z,246.85
2023-02-13T18:17:49.011Z,265.73
2023-02-13T18:20:19.081Z,170.85
2023-02-13T18:22:46.125Z,278.83
2023-02-13T18:25:14.191Z,351.70
2023-02-13T18:27:41.252Z,225.27
2023-02-13T18:30:10.307Z,236.48
2023-02-13T18:32:37.324Z,303.55
2023-02-13T18:35:04.454Z,217.20
2023-02-13T18:37:33.597Z,325.67
2023-02-13T18:40:00.712Z,275.38
2023-02-13T18:42:27.741Z,255.85
2023-02-13T18:44:54.702Z,231.70
2023-02-13T18:47:21.705Z,226.20
2023-02-13T18:49:48.690Z,269.65
2023-02-13T18:52:16.080Z,264.10
2023-02-13T18:54:43.068Z,402.73
2023-02-13T18:57:10.125Z,305.58
2023-02-13T18:59:37.131Z,248.35
2023-02-13T19:02:04.428Z,299.58
2023-02-13T19:04:31.973Z,346.52
2023-02-13T19:06:58.994Z,237.55
2023-02-13T19:09:26.010Z,261.05
2023-02-13T19:11:53.006Z,187.95
2023-02-13T19:14:20.744Z,247.57
2023-02-13T19:16:47.827Z,234.45
2023-02-13T19:19:14.870Z,205.15
2023-02-13T19:21:41.911Z,289.77
2023-02-13T19:24:11.435Z,204.38
2023-02-13T19:26:38.505Z,285.10
2023-02-13T19:29:05.585Z,225.65
2023-02-13T19:31:33.615Z,257.80
2023-02-13T19:34:00.870Z,354.50
2023-02-13T19:36:29.884Z,206.75
2023-02-13T19:38:59.018Z,219.15
2023-02-13T19:41:26.314Z,217.60
2023-02-13T19:43:56.021Z,352.08
2023-02-13T19:46:28.566Z,258.30
2023-02-13T19:48:56.144Z,351.48
2023-02-13T19:51:27.855Z,137.68
2023-02-13T19:54:06.665Z,280.23
2023-02-13T19:56:36.248Z,383.83
2023-02-13T19:59:04.265Z,382.50
2023-02-13T20:01:31.613Z,244.70
2023-02-13T20:03:58.819Z,293.63
2023-02-13T20:06:35.962Z,254.63
2023-02-13T20:09:06.821Z,225.75
2023-02-13T20:11:34.034Z,220.85
2023-02-13T20:14:01.205Z,233.90
2023-02-13T20:16:33.133Z,296.73
2023-02-13T20:19:03.328Z,328.15
2023-02-13T20:21:30.458Z,269.38
2023-02-13T20:23:57.420Z,222.90
2023-02-13T20:26:24.655Z,206.43
2023-02-13T20:28:51.644Z,212.98
2023-02-13T20:31:22.677Z,286.70
2023-02-13T20:33:51.352Z,183.40
2023-02-13T20:36:23.939Z,338.48
2023-02-13T20:38:55.234Z,290.98
2023-02-13T20:41:24.739Z,269.35
2023-02-13T20:43:51.722Z,172.35
2023-02-13T20:46:19.258Z,256.50
2023-02-13T20:48:48.104Z,198.00
2023-02-13T20:51:16.905Z,298.60
2023-02-13T20:53:45.317Z,208.00
2023-02-13T20:56:15.429Z,254.55
2023-02-13T20:58:43.600Z,317.08
2023-02-13T21:01:16.417Z,177.57
2023-02-13T21:03:44.499Z,358.63
2023-02-13T21:06:12.391Z,253.07
2023-02-13T21:08:39.643Z,302.67
2023-02-13T21:11:07.953Z,159.95
2023-02-13T21:13:36.092Z,245.45
2023-02-13T21:16:12.433Z,234.55
2023-02-13T21:18:40.628Z,281.95
2023-02-13T21:21:09.373Z,149.85
2023-02-13T21:23:37.134Z,216.00
2023-02-13T21:26:06.730Z,175.45
2023-02-13T21:28:34.178Z,211.77
2023-02-13T21:31:14.973Z,223.65
2023-02-13T21:33:42.483Z,159.13
2023-02-13T21:36:11.476Z,211.77
2023-02-13T21:38:40.112Z,179.90
2023-02-13T21:41:15.824Z,141.18
2023-02-13T21:43:46.849Z,223.70
2023-02-13T21:46:18.585Z,205.88
2023-02-13T21:48:46.970Z,234.27
2023-02-13T21:51:19.635Z,140.27
2023-02-13T21:53:47.972Z,157.77
2023-02-13T21:56:23.360Z,219.35
2023-02-13T21:58:51.281Z,137.02
2023-02-13T22:01:26.436Z,142.07
2023-02-13T22:03:58.376Z,160.68
2023-02-13T22:06:28.099Z,169.20
2023-02-13T22:08:59.982Z,145.02
2023-02-13T22:11:27.539Z,147.55
2023-02-13T22:13:56.628Z,207.63
2023-02-13T22:16:24.536Z,180.07
2023-02-13T22:18:51.561Z,178.30
2023-02-13T22:21:21.356Z,184.57
2023-02-13T22:23:49.317Z,138.80
2023-02-13T22:26:22.203Z,119.43
2023-02-13T22:28:49.876Z,143.03
2023-02-13T22:31:17.917Z,140.25
2023-02-13T22:33:52.333Z,172.18
2023-02-13T22:36:25.797Z,133.10
2023-02-13T22:38:53.229Z,174.10
2023-02-13T22:41:25.297Z,147.77
2023-02-13T22:43:52.928Z,172.88
2023-02-13T22:46:25.497Z,178.77
2023-02-13T22:48:52.962Z,180.50
2023-02-13T22:51:23.181Z,135.27
2023-02-13T22:53:52.655Z,122.53
2023-02-13T22:56:19.943Z,123.07
2023-02-13T22:58:47.006Z,151.60
2023-02-13T23:01:16.582Z,208.00
2023-02-13T23:03:44.464Z,157.65
2023-02-13T23:06:13.918Z,219.10
2023-02-13T23:08:41.328Z,184.48
2023-02-13T23:11:35.735Z,133.50
2023-02-13T23:16:53.417Z,119.60
2023-02-13T23:19:21.521Z,183.52
2023-02-13T23:21:49.165Z,182.68
2023-02-13T23:24:16.298Z,222.82
2023-02-13T23:26:43.269Z,253.75
2023-02-13T23:29:11.040Z,174.52
2023-02-13T23:31:38.314Z,222.80
2023-02-13T23:34:05.498Z,176.43
2023-02-13T23:36:32.569Z,122.82
2023-02-13T23:38:59.600Z,215.68
2023-02-13T23:41:26.556Z,226.25
2023-02-13T23:43:53.582Z,139.32
2023-02-13T23:46:20.638Z,143.38
2023-02-13T23:48:47.801Z,207.98
2023-02-13T23:51:14.871Z,169.10
2023-02-13T23:53:41.930Z,133.98
2023-02-13T23:56:08.993Z,186.10
2023-02-13T23:58:36.152Z,112.00
